Time;durP1;ratioP1;P1;durP2;ratioP2;P2;SDS_P1;SDS_P2;PMS_P1;PMS_P2;Temp;Humidity;BMP_temperature;BMP_pressure;BME280_temperature;BME280_humidity;BME280_pressure;Samples;Min_cycle;Max_cycle;Signal;HPM_P1;HPM_P2
2022/12/04 00:01:16;;;;;;;11.97;8.10;;;;;;;-3.29;70.03;102477.37;1711871;82;20997;-71
2022/12/04 00:03:42;;;;;;;14.40;8.93;;;;;;;-3.30;70.02;102480.82;1742120;81;21064;-72
2022/12/04 00:06:17;;;;;;;15.43;9.00;;;;;;;-3.31;70.05;102479.09;1728762;82;21016;-73
2022/12/04 00:08:44;;;;;;;12.95;7.92;;;;;;;-3.33;70.03;102482.09;1698973;83;20960;-71
2022/12/04 00:11:13;;;;;;;13.75;8.18;;;;;;;-3.33;69.98;102492.00;1701181;83;22230;-71
2022/12/04 00:13:40;;;;;;;12.68;8.60;;;;;;;-3.36;69.95;102489.81;1707735;83;21041;-71
2022/12/04 00:16:09;;;;;;;14.03;8.30;;;;;;;-3.36;70.01;102484.64;1687153;82;21668;-71
2022/12/04 00:18:35;;;;;;;13.55;8.40;;;;;;;-3.38;69.97;102483.30;1666756;84;21057;-72
2022/12/04 00:21:04;;;;;;;12.33;7.67;;;;;;;-3.40;69.99;102482.42;1706826;82;21171;-71
2022/12/04 00:23:31;;;;;;;14.40;8.03;;;;;;;-3.38;70.03;102487.18;1719064;81;21817;-72
2022/12/04 00:26:05;;;;;;;13.62;8.45;;;;;;;-3.40;70.01;102491.90;1731749;82;20997;-71
2022/12/04 00:28:32;;;;;;;11.73;7.92;;;;;;;-3.39;70.00;102487.17;1734025;81;21493;-72
2022/12/04 00:31:06;;;;;;;12.18;8.08;;;;;;;-3.43;69.99;102488.00;1713259;82;21085;-71
2022/12/04 00:33:33;;;;;;;;;;;;;;;-3.46;70.03;102478.08;1701975;83;21387;-71
2022/12/04 00:36:02;;;;;;;13.22;8.00;;;;;;;-3.49;70.09;102480.59;1691948;83;21814;-72
2022/12/04 00:38:28;;;;;;;15.35;8.33;;;;;;;-3.50;70.16;102482.74;1670730;83;20928;-71
2022/12/04 00:40:55;;;;;;;11.83;8.20;;;;;;;-3.50;70.20;102474.99;1718626;82;21414;-72
2022/12/04 00:43:22;;;;;;;15.28;8.60;;;;;;;-3.48;70.18;102481.03;1705010;83;21601;-71
2022/12/04 00:45:49;;;;;;;14.05;9.05;;;;;;;-3.48;70.24;102484.91;1687792;83;21084;-72
2022/12/04 00:48:16;;;;;;;13.75;8.30;;;;;;;-3.46;70.27;102485.83;1712270;82;21917;-72
2022/12/04 00:50:42;;;;;;;12.98;7.78;;;;;;;-3.47;70.29;102478.93;1723000;81;21040;-71
2022/12/04 00:53:11;;;;;;;12.37;8.83;;;;;;;-3.47;70.34;102475.05;1676173;84;21020;-71
2022/12/04 00:55:41;;;;;;;13.25;8.53;;;;;;;-3.48;70.36;102473.29;1659223;84;20945;-72
2022/12/04 00:58:08;;;;;;;13.58;8.38;;;;;;;-3.46;70.42;102482.38;1688327;81;21012;-71
2022/12/04 01:00:37;;;;;;;13.30;9.10;;;;;;;-3.48;70.37;102477.16;1731516;81;21917;-71
2022/12/04 01:03:04;;;;;;;15.15;8.98;;;;;;;-3.48;70.38;102473.72;1677288;84;21138;-71
2022/12/04 01:05:30;;;;;;;12.90;8.08;;;;;;;-3.49;70.44;102475.86;1670350;83;21036;-71
2022/12/04 01:07:57;;;;;;;14.38;9.10;;;;;;;-3.50;70.47;102462.08;1717189;82;20990;-71
2022/12/04 01:10:23;;;;;;;13.05;8.43;;;;;;;-3.49;70.49;102471.56;1724536;81;20991;-71
2022/12/04 01:12:54;;;;;;;12.25;7.87;;;;;;;-3.49;70.49;102471.98;1682778;82;21846;-72
2022/12/04 01:15:20;;;;;;;15.45;8.53;;;;;;;-3.50;70.56;102466.38;1682758;82;21023;-72
2022/12/04 01:17:47;;;;;;;13.03;8.65;;;;;;;-3.52;70.54;102474.11;1722905;82;20949;-71
2022/12/04 01:20:15;;;;;;;14.70;9.10;;;;;;;-3.54;70.56;102473.23;1706867;81;20969;-71
2022/12/04 01:22:41;;;;;;;14.80;8.73;;;;;;;-3.53;70.63;102484.44;1729154;82;21020;-72
2022/12/04 01:25:09;;;;;;;14.05;8.58;;;;;;;-3.51;70.67;102475.84;1729216;81;22416;-71
2022/12/04 01:27:35;;;;;;;15.08;8.70;;;;;;;-3.51;70.67;102474.55;1683361;84;20968;-71
2022/12/04 01:30:03;;;;;;;14.05;8.75;;;;;;;-3.51;70.63;102476.27;1696593;82;21029;-71
2022/12/04 01:32:29;;;;;;;12.90;8.98;;;;;;;-3.52;70.58;102475.41;1709662;81;21106;-71
2022/12/04 01:34:56;;;;;;;12.85;8.13;;;;;;;-3.56;70.54;102487.86;1688855;83;21031;-71
2022/12/04 01:37:23;;;;;;;15.70;9.05;;;;;;;-3.57;70.58;102481.35;1689043;84;21925;-72
2022/12/04 01:39:49;;;;;;;13.60;8.58;;;;;;;-3.59;70.51;102485.64;1689292;83;21146;-71
2022/12/04 01:42:16;;;;;;;12.95;8.38;;;;;;;-3.64;70.54;102485.59;1685405;82;20949;-71
2022/12/04 01:44:45;;;;;;;12.93;7.80;;;;;;;-3.65;70.60;102483.86;1732515;81;20957;-71
2022/12/04 01:47:13;;;;;;;13.90;8.60;;;;;;;-3.61;70.61;102489.50;1721647;82;21020;-71
2022/12/04 01:49:44;;;;;;;14.20;7.83;;;;;;;-3.65;70.47;102483.86;1702579;83;21895;-71
2022/12/04 01:52:20;;;;;;;15.08;7.92;;;;;;;-3.65;70.47;102485.16;1729577;81;21040;-71
2022/12/04 01:54:50;;;;;;;13.38;8.43;;;;;;;-3.69;70.46;102485.08;1738123;81;21052;-71
2022/12/04 01:57:20;;;;;;;14.43;8.28;;;;;;;-3.73;70.42;102486.77;1739012;81;21005;-72
2022/12/04 01:59:56;;;;;;;16.12;8.60;;;;;;;-3.77;70.39;102479.38;1731040;80;21095;-71
2022/12/04 02:02:36;;;;;;;12.10;7.70;;;;;;;-3.80;70.42;102482.36;1680259;83;21645;-71
2022/12/04 02:05:05;;;;;;;13.68;8.18;;;;;;;-3.81;70.48;102480.20;1706645;82;21223;-72
2022/12/04 02:07:31;;;;;;;15.23;8.88;;;;;;;-3.80;70.53;102484.94;1700725;81;21017;-71
2022/12/04 02:10:02;;;;;;;13.88;8.55;;;;;;;-3.80;70.49;102490.11;1727350;80;20944;-73
2022/12/04 02:12:45;;;;;;;13.28;8.40;;;;;;;-3.81;70.46;102488.38;1721066;81;20989;-71
2022/12/04 02:15:28;;;;;;;13.28;8.43;;;;;;;-3.83;70.44;102490.94;1727830;81;21828;-72
2022/12/04 02:18:19;;;;;;;12.00;7.72;;;;;;;-3.84;70.44;102490.50;1686309;84;21806;-71
2022/12/04 02:21:00;;;;;;;13.15;8.73;;;;;;;-3.82;70.49;102494.39;1704246;81;21051;-70
2022/12/04 02:23:50;;;;;;;12.40;7.42;;;;;;;-3.84;70.42;102493.50;1716512;82;21099;-70
2022/12/04 02:26:43;;;;;;;11.80;7.67;;;;;;;-3.82;70.44;102498.26;1722187;81;21054;-70
2022/12/04 02:29:23;;;;;;;13.38;8.18;;;;;;;-3.83;70.33;102502.98;1720855;81;21889;-71
2022/12/04 02:32:18;;;;;;;12.23;7.85;;;;;;;-3.88;70.18;102506.77;1736067;82;21080;-71
2022/12/04 02:34:52;;;;;;;17.05;7.95;;;;;;;-3.93;70.22;102499.83;1705190;82;21001;-70
2022/12/04 02:37:30;;;;;;;14.27;8.00;;;;;;;-3.93;70.30;102507.15;1698470;83;21005;-71
2022/12/04 02:40:11;;;;;;;13.15;7.62;;;;;;;-3.94;70.13;102503.26;1706103;82;21235;-71
2022/12/04 02:42:44;;;;;;;12.10;7.87;;;;;;;-4.00;70.18;102510.48;1731652;82;22551;-71
2022/12/04 02:45:18;;;;;;;16.23;9.13;;;;;;;-4.01;70.21;102516.48;1696121;81;21094;-71
2022/12/04 02:47:46;;;;;;;13.93;8.05;;;;;;;-4.03;70.22;102506.57;1724928;81;21058;-71
2022/12/04 02:50:16;;;;;;;12.80;8.08;;;;;;;-4.04;70.15;102505.70;1726511;80;21041;-71
2022/12/04 02:52:51;;;;;;;10.98;7.33;;;;;;;-4.05;70.13;102501.39;1719411;82;21048;-71
2022/12/04 02:55:23;;;;;;;13.72;8.08;;;;;;;-4.07;70.11;102509.51;1718515;81;22022;-71
2022/12/04 02:57:52;;;;;;;12.73;7.92;;;;;;;-4.09;70.13;102499.59;1726229;81;20944;-71
2022/12/04 03:00:20;;;;;;;11.22;7.33;;;;;;;-4.09;70.14;102499.59;1699870;82;21005;-71
2022/12/04 03:02:55;;;;;;;12.50;7.78;;;;;;;-4.08;70.09;102501.75;1722865;81;20992;-71
2022/12/04 03:05:31;;;;;;;15.93;7.97;;;;;;;-4.12;70.04;102507.30;1723678;82;21342;-71
2022/12/04 03:08:01;;;;;;;14.07;8.00;;;;;;;-4.16;70.02;102505.50;1717980;82;21836;-71
2022/12/04 03:10:33;;;;;;;14.10;8.65;;;;;;;-4.15;70.09;102503.78;1735152;80;20940;-71
2022/12/04 03:13:15;;;;;;;12.78;6.78;;;;;;;-4.13;70.15;102500.83;1726755;82;20968;-72
2022/12/04 03:15:49;;;;;;;13.00;7.33;;;;;;;-4.10;70.16;102509.47;1726145;81;21004;-71
2022/12/04 03:18:22;;;;;;;14.93;7.87;;;;;;;-4.09;70.11;102513.78;1698811;82;21016;-71
2022/12/04 03:20:50;;;;;;;;;;;;;;;-4.13;69.94;102513.73;1723323;82;22441;-71
2022/12/04 03:23:21;;;;;;;13.75;6.58;;;;;;;-4.14;70.04;102517.16;1724520;82;20218;-71
2022/12/04 03:26:16;;;;;;;11.88;7.72;;;;;;;-4.15;69.99;102511.52;1714211;82;21014;-71
2022/12/04 03:29:22;;;;;;;10.93;6.67;;;;;;;-4.18;70.04;102507.62;1725383;82;20976;-71
2022/12/04 03:32:17;;;;;;;14.40;7.28;;;;;;;-4.22;69.95;102515.74;1669056;84;21098;-71
2022/12/04 03:35:09;;;;;;;10.45;6.60;;;;;;;-4.26;69.97;102511.78;1698615;82;21836;-71
2022/12/04 03:37:44;;;;;;;12.45;7.70;;;;;;;-4.28;69.99;102516.92;1730767;82;20953;-71
2022/12/04 03:40:35;;;;;;;12.35;6.75;;;;;;;-4.32;70.03;102514.73;1737789;80;21052;-71
2022/12/04 03:43:05;;;;;;;11.43;6.65;;;;;;;-4.29;70.04;102512.61;1728553;81;21017;-71
2022/12/04 03:45:55;;;;;;;11.25;6.50;;;;;;;-4.31;70.03;102519.47;1686448;84;21028;-71
2022/12/04 03:48:27;;;;;;;16.65;7.17;;;;;;;-4.28;70.07;102522.51;1698099;84;21862;-71
2022/12/04 03:51:02;;;;;;;12.80;7.10;;;;;;;-4.28;70.08;102517.34;1693464;83;21208;-71
2022/12/04 03:53:55;;;;;;;13.60;7.12;;;;;;;-4.26;70.08;102521.69;1691395;83;21033;-72
2022/12/04 03:56:28;;;;;;;13.05;7.37;;;;;;;-4.27;70.06;102519.95;1710618;83;21544;-71
2022/12/04 03:59:02;;;;;;;8.75;6.47;;;;;;;-4.26;70.09;102525.98;1714770;83;21043;-71
2022/12/04 04:01:33;;;;;;;12.40;7.10;;;;;;;-4.25;70.02;102516.97;1711239;82;21803;-71
2022/12/04 04:03:59;;;;;;;11.60;6.90;;;;;;;-4.26;69.98;102520.81;1706397;83;21060;-71
2022/12/04 04:06:31;;;;;;;10.80;6.80;;;;;;;-4.27;69.99;102519.08;1713391;81;21072;-71
2022/12/04 04:09:02;;;;;;;12.53;7.12;;;;;;;-4.27;69.96;102519.95;1724728;81;21032;-71
2022/12/04 04:11:36;;;;;;;12.78;7.30;;;;;;;-4.27;69.92;102522.53;1693163;83;21003;-71
2022/12/04 07:26:41;;;;;;;7.25;4.58;;;;;;;-4.33;66.16;102589.52;1707867;82;21561;-75
2022/12/04 07:29:09;;;;;;;7.75;4.00;;;;;;;-4.28;66.11;102590.88;1685940;83;21040;-75
2022/12/04 07:31:35;;;;;;;8.90;3.92;;;;;;;-4.24;66.12;102591.40;1727185;82;22115;-75
2022/12/04 07:34:02;;;;;;;8.63;4.08;;;;;;;-4.16;66.14;102593.23;1703961;82;22468;-75
2022/12/04 07:36:29;;;;;;;11.03;4.65;;;;;;;-4.09;66.07;102589.92;1714810;82;21018;-75
2022/12/04 07:38:55;;;;;;;8.73;4.15;;;;;;;-4.05;65.86;102598.60;1695059;82;21539;-75
2022/12/04 07:41:22;;;;;;;8.23;3.75;;;;;;;-4.01;65.78;102598.22;1714703;82;21047;-74
2022/12/04 07:43:49;;;;;;;8.68;4.83;;;;;;;-3.96;65.69;102593.98;1726733;80;21046;-75
2022/12/04 07:46:19;;;;;;;8.85;5.08;;;;;;;-3.92;65.61;102599.66;1706526;81;22419;-75
2022/12/04 07:48:45;;;;;;;7.95;3.92;;;;;;;-3.88;65.51;102607.45;1680517;81;21023;-74
2022/12/04 07:51:14;;;;;;;8.00;4.33;;;;;;;-3.88;65.23;102611.33;1695972;81;21031;-72
2022/12/04 07:53:41;;;;;;;7.47;4.35;;;;;;;-3.90;65.14;102614.31;1702431;83;20962;-72
2022/12/04 07:56:08;;;;;;;10.08;4.10;;;;;;;-3.87;65.15;102608.33;1713140;81;21530;-72
2022/12/04 07:58:34;;;;;;;10.48;4.62;;;;;;;-3.83;65.05;102614.87;1686990;83;21874;-73
2022/12/04 08:01:09;;;;;;;8.60;3.80;;;;;;;-3.82;64.93;102614.44;1695327;82;21538;-73
2022/12/04 08:03:36;;;;;;;6.28;3.80;;;;;;;-3.81;64.75;102614.89;1679575;83;21481;-72
2022/12/04 08:06:03;;;;;;;6.97;4.08;;;;;;;-3.84;64.60;102607.97;1690818;83;21087;-73
2022/12/04 08:08:30;;;;;;;9.10;4.00;;;;;;;-3.84;64.58;102607.97;1686513;84;21127;-72
2022/12/04 08:10:57;;;;;;;7.20;3.20;;;;;;;-3.83;64.50;102611.42;1680411;83;21810;-73
2022/12/04 08:13:23;;;;;;;6.10;3.50;;;;;;;-3.82;64.30;102613.16;1670363;84;21024;-73
2022/12/04 08:15:50;;;;;;;6.37;3.62;;;;;;;-3.84;64.04;102605.81;1677577;82;21120;-74
2022/12/04 08:18:16;;;;;;;8.23;3.55;;;;;;;-3.83;64.06;102612.70;1674830;84;21115;-74
2022/12/04 08:20:43;;;;;;;9.28;3.80;;;;;;;-3.82;63.96;102608.86;1678351;82;21653;-74
2022/12/04 08:23:10;;;;;;;5.45;3.42;;;;;;;-3.77;63.82;102601.16;1716476;81;22250;-72
2022/12/04 08:25:40;;;;;;;4.62;3.10;;;;;;;-3.77;63.63;102598.58;1713104;81;21012;-74
2022/12/04 08:28:07;;;;;;;7.47;4.03;;;;;;;-3.77;63.68;102588.25;1734733;80;21510;-73
2022/12/04 08:30:34;;;;;;;8.90;3.87;;;;;;;-3.72;63.66;102590.50;1711463;82;21471;-78
2022/12/04 08:33:01;;;;;;;8.88;3.77;;;;;;;-3.66;63.71;102590.60;1668851;84;22209;-72
2022/12/04 08:35:29;;;;;;;6.95;3.35;;;;;;;-3.55;63.70;102591.62;1670661;84;22665;-73
2022/12/04 08:37:55;;;;;;;6.33;3.17;;;;;;;-3.47;63.53;102583.98;1718921;82;21046;-74
2022/12/04 08:40:22;;;;;;;5.78;3.02;;;;;;;-3.45;63.20;102577.11;1718419;82;21115;-71
2022/12/04 08:42:49;;;;;;;6.17;3.22;;;;;;;-3.48;62.81;102574.46;1698577;82;20983;-74
2022/12/04 08:45:15;;;;;;;5.92;2.95;;;;;;;-3.57;62.88;102572.66;1713249;80;20981;-74
2022/12/04 08:47:41;;;;;;;5.60;3.08;;;;;;;-3.55;63.04;102564.49;1726178;82;21891;-75
2022/12/04 08:50:09;;;;;;;7.42;3.47;;;;;;;-3.50;63.15;102568.41;1733340;80;21036;-75
2022/12/04 08:52:35;;;;;;;9.10;3.20;;;;;;;-3.43;62.93;102563.78;1726321;81;20968;-76
2022/12/04 08:55:02;;;;;;;6.20;3.70;;;;;;;-3.41;62.94;102567.25;1725233;82;20986;-74
2022/12/04 08:57:28;;;;;;;5.85;3.40;;;;;;;-3.33;62.85;102559.60;1727063;82;21073;-75
2022/12/04 08:59:55;;;;;;;7.62;3.12;;;;;;;-3.29;62.69;102556.20;1719798;81;21833;-75
2022/12/04 09:02:21;;;;;;;6.87;3.20;;;;;;;-3.24;62.70;102564.89;1724676;82;21420;-74
2022/12/04 09:04:47;;;;;;;7.37;3.12;;;;;;;-3.23;62.40;102555.86;1727958;81;21372;-76
2022/12/04 09:07:14;;;;;;;6.65;3.20;;;;;;;-3.22;62.44;102559.31;1688452;84;22079;-74
2022/12/04 09:09:41;;;;;;;5.92;3.27;;;;;;;-3.20;62.18;102569.23;1707588;80;21078;-74
2022/12/04 09:12:07;;;;;;;5.17;3.00;;;;;;;-3.23;62.05;102561.02;1716234;81;21969;-74
2022/12/04 09:14:34;;;;;;;6.17;2.90;;;;;;;-3.19;62.19;102565.80;1713220;81;20997;-75
2022/12/04 09:17:01;;;;;;;4.72;2.87;;;;;;;-3.09;62.15;102561.61;1702419;82;21473;-74
2022/12/04 09:19:30;;;;;;;4.80;2.70;;;;;;;-3.00;62.06;102550.95;1723194;81;21539;-74
2022/12/04 09:21:56;;;;;;;4.45;2.83;;;;;;;-2.94;61.76;102551.03;1690263;83;21011;-74
2022/12/04 09:24:23;;;;;;;5.28;3.02;;;;;;;-2.95;61.43;102538.09;1716206;81;21849;-74
2022/12/04 09:26:50;;;;;;;4.87;2.77;;;;;;;-2.96;61.43;102551.87;1730617;81;20948;-74
2022/12/04 09:29:17;;;;;;;5.67;2.50;;;;;;;-2.95;61.38;102544.13;1723833;82;21444;-74
2022/12/04 09:31:45;;;;;;;4.83;2.77;;;;;;;-2.92;61.20;102550.61;1719813;82;21401;-74
2022/12/04 09:34:11;;;;;;;5.90;2.90;;;;;;;-2.90;61.21;102550.20;1698366;82;21017;-74
2022/12/04 09:36:38;;;;;;;4.90;2.62;;;;;;;-2.83;61.22;102546.39;1682627;82;21947;-73
2022/12/04 09:39:04;;;;;;;5.20;3.10;;;;;;;-2.77;61.10;102552.94;1659215;84;21212;-74
2022/12/04 09:41:39;;;;;;;5.50;3.27;;;;;;;-2.66;61.25;102547.44;1666315;84;21004;-75
2022/12/04 09:44:17;;;;;;;5.65;3.00;;;;;;;-2.57;60.76;102541.06;1665478;84;21007;-74
2022/12/04 09:46:49;;;;;;;5.08;2.80;;;;;;;-2.53;60.69;102553.59;1663225;84;21494;-75
2022/12/04 09:49:24;;;;;;;6.03;2.95;;;;;;;-2.39;60.85;102550.72;1667929;83;21847;-73
2022/12/04 09:51:52;;;;;;;6.00;3.00;;;;;;;-2.20;60.52;102544.84;1664711;83;21481;-74
2022/12/04 09:54:25;;;;;;;8.73;3.40;;;;;;;-2.13;59.86;102553.50;1673571;83;20979;-74
2022/12/04 09:56:54;;;;;;;;;;;;;;;-2.16;59.65;102540.55;1666441;84;21099;-75
2022/12/04 09:59:23;;;;;;;7.28;3.30;;;;;;;-2.15;59.63;102542.27;1694767;83;20189;-74
2022/12/04 10:02:16;;;;;;;5.33;3.40;;;;;;;-2.16;59.25;102543.13;1709987;82;21790;-74
2022/12/04 10:04:43;;;;;;;6.37;3.27;;;;;;;-2.24;59.25;102531.84;1661488;83;21015;-74
2022/12/04 10:07:21;;;;;;;6.92;3.12;;;;;;;-2.17;59.60;102528.03;1724498;81;20945;-74
2022/12/04 10:10:11;;;;;;;5.40;3.27;;;;;;;-2.01;59.60;102538.08;1734932;82;21016;-73
2022/12/04 10:13:25;;;;;;;5.42;2.90;;;;;;;-1.91;59.06;102532.11;1726767;81;20968;-73
2022/12/04 10:16:12;;;;;;;5.13;2.93;;;;;;;-1.94;58.43;102534.66;1673381;83;21846;-73
2022/12/04 10:18:44;;;;;;;7.50;2.67;;;;;;;-1.92;58.69;102530.80;1657659;84;20968;-74
2022/12/04 10:21:48;;;;;;;7.20;2.92;;;;;;;-1.86;57.87;102529.09;1653498;86;21067;-75
2022/12/04 10:24:23;;;;;;;6.05;2.40;;;;;;;-1.93;57.47;102534.22;1661253;83;21035;-75
2022/12/04 10:26:50;;;;;;;4.97;2.75;;;;;;;-1.94;57.77;102526.02;1666977;84;21078;-74
2022/12/04 10:29:26;;;;;;;4.05;2.55;;;;;;;-1.84;57.58;102523.92;1671085;84;21845;-74
2022/12/04 10:31:57;;;;;;;6.25;2.72;;;;;;;-1.79;57.33;102522.24;1677947;81;21006;-74
2022/12/04 10:34:26;;;;;;;7.45;2.65;;;;;;;-1.73;57.05;102519.70;1704791;83;21012;-74
2022/12/04 10:36:58;;;;;;;4.97;2.50;;;;;;;-1.74;56.86;102526.61;1726434;82;21000;-74
2022/12/04 10:39:35;;;;;;;4.87;2.80;;;;;;;-1.69;56.84;102517.55;1732983;81;21499;-75
2022/12/04 10:42:24;;;;;;;5.42;2.70;;;;;;;-1.62;56.79;102516.73;1735550;82;21809;-74
2022/12/04 10:44:52;;;;;;;5.92;2.77;;;;;;;-1.52;56.49;102518.94;1727503;82;21068;-75
2022/12/04 10:47:20;;;;;;;5.67;2.30;;;;;;;-1.42;56.42;102515.95;1727737;80;21063;-74
2022/12/04 10:49:46;;;;;;;5.67;3.02;;;;;;;-1.30;55.99;102506.92;1732076;81;21447;-74
2022/12/04 10:52:13;;;;;;;6.95;3.30;;;;;;;-1.21;55.95;102503.94;1723090;81;21030;-75
2022/12/04 10:54:49;;;;;;;4.60;2.60;;;;;;;-1.12;55.28;102506.99;1689677;83;21857;-75
2022/12/04 10:57:16;;;;;;;7.40;2.75;;;;;;;-1.14;54.43;102503.97;1695336;82;21011;-74
2022/12/04 10:59:54;;;;;;;6.30;2.55;;;;;;;-1.19;54.85;102497.02;1717674;80;21205;-75
2022/12/04 11:02:24;;;;;;;4.35;2.42;;;;;;;-1.06;54.55;102508.31;1720197;81;20965;-74
2022/12/04 11:04:59;;;;;;;5.28;2.40;;;;;;;-1.02;54.05;102506.16;1720874;82;21165;-75
2022/12/04 11:07:29;;;;;;;4.85;2.40;;;;;;;-0.97;53.75;102501.83;1717828;81;21954;-74
2022/12/04 11:10:09;;;;;;;4.95;2.70;;;;;;;-0.99;53.34;102506.15;1724449;82;21440;-75
2022/12/04 11:12:35;;;;;;;4.08;2.42;;;;;;;-0.95;53.86;102497.97;1724119;81;21158;-74
2022/12/04 11:15:11;;;;;;;5.15;2.45;;;;;;;-0.74;53.90;102491.51;1696061;82;21012;-75
2022/12/04 12:48:38;;;;;;;4.30;2.12;;;;;;;0.95;47.10;102455.11;1726464;81;21026;-76
2022/12/04 12:51:17;;;;;;;4.95;2.70;;;;;;;0.97;46.29;102449.92;1702750;82;21442;-76
2022/12/04 12:53:46;;;;;;;4.42;2.58;;;;;;;0.95;46.06;102446.00;1700859;82;22464;-76
2022/12/04 12:56:13;;;;;;;3.55;2.15;;;;;;;1.01;46.29;102439.91;1707138;82;21048;-74
2022/12/04 12:58:47;;;;;;;4.47;2.30;;;;;;;1.18;45.85;102443.27;1672293;84;21433;-76
2022/12/04 13:01:43;;;;;;;3.60;2.30;;;;;;;1.26;45.08;102443.21;1704700;83;21198;-76
2022/12/04 13:04:24;;;;;;;5.05;2.33;;;;;;;1.11;44.62;102442.43;1685823;83;21509;-77
2022/12/04 13:07:03;;;;;;;3.92;2.00;;;;;;;0.86;45.00;102445.62;1680580;83;22352;-75
2022/12/04 13:09:32;;;;;;;4.42;2.30;;;;;;;0.70;44.82;102437.94;1633578;82;20956;-75
2022/12/04 13:12:02;;;;;;;5.00;2.50;;;;;;;0.60;45.17;102442.33;1722345;82;20968;-74
2022/12/04 13:14:30;;;;;;;3.83;2.20;;;;;;;0.54;45.09;102448.41;1719792;81;21022;-75
2022/12/04 13:17:06;;;;;;;5.75;2.17;;;;;;;0.45;44.92;102454.95;1731592;80;21041;-76
2022/12/04 13:19:43;;;;;;;3.77;1.90;;;;;;;0.40;44.97;102451.52;1716673;82;22402;-74
2022/12/04 13:22:35;;;;;;;4.92;2.10;;;;;;;0.34;45.21;102453.27;1698100;82;21513;-74
2022/12/04 13:25:24;;;;;;;3.33;2.02;;;;;;;0.23;44.83;102443.78;1670462;82;21083;-73
2022/12/04 13:28:09;;;;;;;3.25;2.08;;;;;;;0.00;44.86;102450.80;1666249;85;21032;-73
2022/12/04 13:30:48;;;;;;;4.15;2.50;;;;;;;-0.30;44.85;102445.19;1676893;82;21403;-75
2022/12/04 13:33:38;;;;;;;4.20;2.02;;;;;;;-0.53;45.39;102451.72;1707986;82;22479;-73
2022/12/04 13:36:34;;;;;;;3.42;2.12;;;;;;;-0.64;45.75;102459.94;1698392;82;20985;-73
2022/12/04 13:39:44;;;;;;;8.15;2.10;;;;;;;-0.70;45.92;102458.20;1721570;82;21078;-73
2022/12/04 13:42:25;;;;;;;4.28;2.25;;;;;;;-0.86;46.11;102462.96;1706395;82;21043;-73
2022/12/04 13:45:01;;;;;;;3.80;1.90;;;;;;;-1.01;46.49;102452.55;1666724;84;21110;-72
2022/12/04 13:47:32;;;;;;;4.78;2.40;;;;;;;-1.13;46.62;102454.70;1671190;83;21873;-73
2022/12/04 13:50:21;;;;;;;3.83;2.15;;;;;;;-1.26;46.87;102454.21;1660456;82;21056;-73
2022/12/04 13:52:48;;;;;;;5.15;2.20;;;;;;;-1.32;47.15;102450.33;1702050;82;21066;-72
2022/12/04 13:55:26;;;;;;;4.50;2.33;;;;;;;-1.37;47.31;102456.78;1686558;83;21114;-72
2022/12/04 13:58:01;;;;;;;4.15;2.15;;;;;;;-1.44;47.48;102457.64;1695553;83;21140;-72
2022/12/04 14:00:33;;;;;;;4.80;2.50;;;;;;;-1.53;47.67;102462.36;1669674;83;21955;-76
2022/12/04 14:03:05;;;;;;;4.67;2.35;;;;;;;-1.61;47.79;102448.93;1658442;84;21055;-73
2022/12/04 14:05:41;;;;;;;5.25;2.27;;;;;;;-1.69;47.84;102448.89;1690221;82;21628;-73
2022/12/04 14:08:24;;;;;;;6.10;3.35;;;;;;;-1.76;47.94;102454.90;1669590;82;21249;-74
2022/12/04 14:11:08;;;;;;;6.92;3.22;;;;;;;-1.85;48.02;102462.19;1709016;81;21065;-74
2022/12/04 14:13:52;;;;;;;;;;;;;;;-1.90;48.24;102462.61;1728096;81;21820;-74
2022/12/04 14:16:22;;;;;;;6.65;2.92;;;;;;;-1.94;48.46;102463.43;1679044;81;20181;-74
2022/12/04 14:18:54;;;;;;;5.45;2.22;;;;;;;-2.02;48.46;102462.55;1667493;83;21210;-73
2022/12/04 14:21:20;;;;;;;3.67;2.15;;;;;;;-2.11;48.43;102453.44;1678012;83;21028;-74
2022/12/04 14:23:48;;;;;;;6.72;3.00;;;;;;;-2.15;48.60;102455.55;1677701;83;20944;-74
2022/12/04 14:26:33;;;;;;;6.42;2.95;;;;;;;-2.17;48.79;102463.73;1662102;83;39777;-71
2022/12/04 14:29:36;;;;;;;6.10;2.80;;;;;;;-2.20;48.89;102468.48;1724847;81;21059;-70
2022/12/04 14:32:11;;;;;;;6.75;3.10;;;;;;;-2.25;48.91;102458.50;1668508;83;21028;-71
2022/12/04 14:34:37;;;;;;;5.55;2.60;;;;;;;-2.28;49.07;102450.73;1670897;83;21193;-71
2022/12/04 14:37:04;;;;;;;5.78;2.77;;;;;;;-2.32;49.19;102455.42;1626251;83;21011;-71
2022/12/04 14:39:39;;;;;;;5.85;2.67;;;;;;;-2.36;49.32;102453.26;1720977;81;21960;-70
2022/12/04 14:42:24;;;;;;;4.85;2.98;;;;;;;-2.37;49.34;102458.42;1687540;83;21374;-69
2022/12/04 14:44:55;;;;;;;4.60;2.30;;;;;;;-2.42;49.41;102448.02;1694354;83;21117;-70
2022/12/04 14:47:59;;;;;;;6.35;2.95;;;;;;;-2.45;49.64;102445.86;1702137;82;21493;-71
2022/12/04 14:50:57;;;;;;;5.00;2.58;;;;;;;-2.46;49.71;102451.45;1724159;81;21009;-70
2022/12/04 14:53:35;;;;;;;4.37;2.52;;;;;;;-2.50;49.58;102452.30;1681981;84;22230;-70
2022/12/04 14:56:42;;;;;;;4.15;2.37;;;;;;;-2.55;49.61;102459.14;1697484;81;21617;-70
2022/12/04 14:59:18;;;;;;;5.65;2.60;;;;;;;-2.58;49.76;102453.09;1709893;81;21443;-73
2022/12/04 15:01:47;;;;;;;4.58;2.85;;;;;;;-2.62;50.07;102459.52;1721568;81;21096;-72
2022/12/04 15:04:27;;;;;;;6.12;3.20;;;;;;;-2.65;50.34;102463.38;1717164;82;21094;-71
2022/12/04 15:06:54;;;;;;;7.72;3.17;;;;;;;-2.65;50.55;102460.79;1723818;82;21968;-73
2022/12/04 15:12:35;;;;;;;5.10;2.80;;;;;;;-2.68;50.95;102462.50;1715837;82;21736;-71
2022/12/04 15:15:23;;;;;;;;;;;;;;;-2.70;50.98;102465.08;1710396;82;21045;-72
2022/12/04 15:18:10;;;;;;;3.90;2.20;;;;;;;-2.77;50.98;102452.94;1708512;82;20162;-72
2022/12/04 15:20:52;;;;;;;4.92;2.30;;;;;;;-2.81;51.21;102451.16;1728830;81;21877;-70
2022/12/04 15:23:39;;;;;;;6.85;2.90;;;;;;;-2.83;51.35;102454.16;1720380;82;21055;-72
2022/12/04 15:26:11;;;;;;;5.70;2.80;;;;;;;-2.84;51.54;102456.73;1699810;82;21064;-71
2022/12/04 15:28:48;;;;;;;6.60;2.60;;;;;;;-2.85;51.66;102457.17;1657960;84;21020;-71
2022/12/04 15:31:20;;;;;;;5.47;2.30;;;;;;;-2.86;51.75;102452.85;1704696;82;21074;-73
2022/12/04 15:33:46;;;;;;;5.28;2.62;;;;;;;-2.89;51.72;102457.58;1709330;82;21877;-72
2022/12/04 15:36:38;;;;;;;6.25;2.40;;;;;;;-2.92;51.78;102445.89;1724109;82;20999;-72
2022/12/04 15:39:05;;;;;;;4.28;2.62;;;;;;;-2.93;52.05;102454.50;1723975;82;21528;-71
2022/12/04 15:41:35;;;;;;;5.40;2.62;;;;;;;-2.95;52.16;102452.34;1681891;83;21031;-71
2022/12/04 15:44:29;;;;;;;4.28;2.52;;;;;;;-2.96;52.26;102458.80;1656476;84;21066;-72
2022/12/04 15:46:58;;;;;;;6.40;2.25;;;;;;;-2.98;52.48;102464.37;1702845;82;21922;-72
2022/12/04 15:49:27;;;;;;;4.53;2.12;;;;;;;-3.02;52.58;102464.75;1678455;83;21034;-72
2022/12/04 15:52:17;;;;;;;4.50;2.37;;;;;;;-3.01;52.70;102465.62;1674198;82;21054;-72
2022/12/04 15:54:57;;;;;;;6.12;2.65;;;;;;;-3.00;52.79;102464.34;1715499;81;21131;-77
2022/12/04 15:57:35;;;;;;;7.72;3.20;;;;;;;-3.03;52.83;102460.44;1738049;81;21147;-74
2022/12/04 16:00:04;;;;;;;5.00;2.52;;;;;;;-3.05;52.95;102474.21;1692796;82;21824;-74
2022/12/04 16:02:41;;;;;;;6.33;3.42;;;;;;;-3.07;53.02;102462.56;1712585;81;21036;-73
2022/12/04 16:05:14;;;;;;;6.20;3.02;;;;;;;-3.09;53.10;102464.24;1725483;82;21577;-72
2022/12/04 16:07:58;;;;;;;5.85;3.00;;;;;;;-3.10;53.08;102472.85;1683073;82;21130;-71
2022/12/04 16:10:33;;;;;;;5.67;2.90;;;;;;;-3.12;53.09;102470.69;1714699;80;21814;-72
2022/12/04 16:13:03;;;;;;;6.97;3.27;;;;;;;-3.15;53.19;102473.25;1724342;81;21816;-73
2022/12/04 16:15:41;;;;;;;6.80;2.60;;;;;;;-3.18;53.15;102470.64;1669963;83;21136;-72
2022/12/04 16:18:10;;;;;;;3.75;2.35;;;;;;;-3.20;53.23;102469.73;1704140;82;21473;-73
2022/12/04 16:20:37;;;;;;;7.55;2.42;;;;;;;-3.23;53.23;102474.88;1693461;83;21489;-72
2022/12/04 16:23:04;;;;;;;5.17;2.37;;;;;;;-3.26;53.26;102473.56;1690005;83;21538;-72
2022/12/04 16:25:31;;;;;;;6.05;2.02;;;;;;;-3.29;53.36;102468.34;1677406;83;22586;-72
2022/12/04 16:27:58;;;;;;;7.47;2.70;;;;;;;-3.32;53.52;102477.36;1704706;82;21545;-74
2022/12/04 16:30:26;;;;;;;5.45;2.30;;;;;;;-3.36;53.59;102476.89;1704182;82;21074;-71
2022/12/04 16:32:53;;;;;;;6.22;2.27;;;;;;;-3.39;53.79;102474.25;1692556;81;21222;-72
2022/12/04 16:35:19;;;;;;;6.15;2.30;;;;;;;-3.41;54.04;102473.38;1707513;82;21461;-73
2022/12/04 16:37:46;;;;;;;4.95;2.40;;;;;;;-3.42;54.16;102474.23;1731698;82;21786;-72
2022/12/04 16:40:13;;;;;;;5.57;2.90;;;;;;;-3.42;54.23;102481.98;1726284;81;21416;-73